Time;durP1;ratioP1;P1;durP2;ratioP2;P2;SDS_P1;SDS_P2;PMS_P1;PMS_P2;Temp;Humidity;BMP_temperature;BMP_pressure;BME280_temperature;BME280_humidity;BME280_pressure;Samples;Min_cycle;Max_cycle;Signal;HPM_P1;HPM_P2
2021/12/04 00:00:59;;;;;;;7.00;6.30;;;2.70;99.90;;;;;;5059629;28;20509;-65
2021/12/04 00:03:26;;;;;;;7.63;6.83;;;2.70;99.90;;;;;;5059053;28;20473;-65
2021/12/04 00:05:57;;;;;;;8.43;6.13;;;2.70;99.90;;;;;;5058636;28;20500;-65
2021/12/04 00:08:27;;;;;;;7.40;6.67;;;2.70;99.90;;;;;;5059309;28;20470;-65
2021/12/04 00:10:54;;;;;;;7.83;6.60;;;2.80;99.90;;;;;;5059424;28;20447;-65
2021/12/04 00:13:23;;;;;;;7.70;6.87;;;2.70;99.90;;;;;;5058495;28;20437;-65
2021/12/04 00:15:54;;;;;;;6.93;6.20;;;2.70;99.90;;;;;;5059528;28;20502;-65
2021/12/04 00:18:22;;;;;;;7.07;6.40;;;2.80;99.90;;;;;;5058873;28;20505;-65
2021/12/04 00:20:49;;;;;;;7.60;6.80;;;2.80;99.90;;;;;;5059087;28;20466;-65
2021/12/04 00:23:16;;;;;;;6.83;6.17;;;2.80;99.90;;;;;;5058820;28;20440;-65
2021/12/04 00:25:43;;;;;;;7.90;7.10;;;2.80;99.90;;;;;;5059142;28;20489;-65
2021/12/04 00:28:10;;;;;;;7.83;7.03;;;2.80;99.90;;;;;;5058743;28;20516;-65
2021/12/04 00:30:39;;;;;;;7.50;6.80;;;2.80;99.90;;;;;;5059057;28;20466;-65
2021/12/04 00:33:11;;;;;;;7.83;7.10;;;2.80;99.90;;;;;;5057957;28;20517;-65
2021/12/04 00:35:46;;;;;;;7.60;6.90;;;2.80;99.90;;;;;;5059455;28;20484;-65
2021/12/04 00:49:16;;;;;;;9.70;6.43;;;2.80;99.90;;;;;;5058272;28;20457;-65
2021/12/04 00:51:49;;;;;;;8.17;7.07;;;2.80;99.90;;;;;;5058966;28;20447;-65
2021/12/04 00:54:17;;;;;;;7.17;6.43;;;2.80;99.90;;;;;;5058537;28;20844;-65
2021/12/04 00:56:44;;;;;;;7.80;7.00;;;2.80;99.90;;;;;;5058948;28;20462;-65
2021/12/04 00:59:13;;;;;;;10.33;7.20;;;2.80;99.90;;;;;;5058013;28;20951;-65
2021/12/04 01:01:43;;;;;;;8.40;7.03;;;2.80;99.90;;;;;;5058785;28;20462;-64
2021/12/04 01:04:10;;;;;;;8.20;7.40;;;2.80;99.90;;;;;;5058142;28;20912;-65
2021/12/04 01:06:37;;;;;;;8.90;7.60;;;2.80;99.90;;;;;;5058445;28;20597;-64
2021/12/04 01:09:08;;;;;;;7.13;6.43;;;2.90;99.90;;;;;;5058154;28;20458;-65
2021/12/04 01:11:37;;;;;;;8.37;7.40;;;2.80;99.90;;;;;;5058783;28;20800;-65
2021/12/04 01:14:07;;;;;;;8.30;7.43;;;2.90;99.90;;;;;;5058063;28;20540;-64
2021/12/04 01:16:36;;;;;;;8.07;6.80;;;2.90;99.90;;;;;;5058382;28;20512;-65
2021/12/04 01:19:07;;;;;;;8.03;6.93;;;2.80;99.90;;;;;;5057673;28;20462;-65
2021/12/04 01:21:35;;;;;;;8.20;7.10;;;2.80;99.90;;;;;;5058295;28;20469;-65
2021/12/04 01:24:02;;;;;;;8.93;7.70;;;2.80;99.90;;;;;;5057565;28;20466;-65
2021/12/04 01:26:29;;;;;;;8.10;7.07;;;2.80;99.90;;;;;;5057900;28;20516;-65
2021/12/04 01:28:56;;;;;;;8.83;7.93;;;2.80;99.90;;;;;;5058060;28;20512;-66
2021/12/04 01:31:23;;;;;;;10.13;7.47;;;2.80;99.90;;;;;;5057456;28;20466;-65
2021/12/04 01:33:51;;;;;;;8.37;7.50;;;2.80;99.90;;;;;;5057791;28;20544;-65
2021/12/04 01:36:19;;;;;;;8.50;7.00;;;2.80;99.90;;;;;;5057873;28;20893;-65
2021/12/04 01:38:46;;;;;;;7.83;7.10;;;2.80;99.90;;;;;;5057277;28;20473;-65
2021/12/04 01:41:14;;;;;;;12.23;8.83;;;2.90;99.90;;;;;;5056748;28;20437;-65
2021/12/04 01:43:43;;;;;;;8.43;7.53;;;2.80;99.90;;;;;;5057903;28;20516;-65
2021/12/04 01:46:10;;;;;;;8.27;7.47;;;2.90;99.90;;;;;;5057310;28;20480;-65
2021/12/04 01:48:37;;;;;;;8.00;7.20;;;2.90;99.90;;;;;;5067457;28;20508;-65
2021/12/04 01:51:05;;;;;;;9.27;7.93;;;2.90;99.90;;;;;;5071352;28;20462;-65
2021/12/04 01:53:36;;;;;;;8.13;6.47;;;2.90;99.90;;;;;;5057493;28;20466;-65
2021/12/04 01:56:05;;;;;;;8.40;6.10;;;2.90;99.90;;;;;;5057359;28;20512;-65
2021/12/04 01:58:32;;;;;;;8.60;7.70;;;2.80;99.90;;;;;;5057584;28;20523;-65
2021/12/04 02:00:59;;;;;;;8.83;6.97;;;2.90;99.90;;;;;;5057446;28;20455;-65
2021/12/04 02:03:26;;;;;;;7.47;6.77;;;2.90;99.90;;;;;;5057718;28;20740;-65
2021/12/04 02:05:53;;;;;;;8.03;7.10;;;2.90;99.90;;;;;;5056647;28;20505;-65
2021/12/04 02:08:22;;;;;;;8.67;7.33;;;2.90;99.90;;;;;;5056382;28;20462;-65
2021/12/04 02:10:53;;;;;;;8.13;7.33;;;3.00;99.90;;;;;;5057317;28;20432;-65
2021/12/04 02:13:21;;;;;;;7.33;6.53;;;2.90;99.90;;;;;;5056816;28;20451;-65
2021/12/04 02:15:48;;;;;;;8.30;6.40;;;3.00;99.90;;;;;;5056349;28;20437;-65
2021/12/04 02:18:20;;;;;;;8.07;6.33;;;3.00;99.90;;;;;;5057221;28;20771;-65
2021/12/04 02:20:49;;;;;;;7.83;7.13;;;3.00;99.90;;;;;;5057373;28;20468;-65
2021/12/04 02:23:16;;;;;;;7.80;6.80;;;3.00;99.90;;;;;;5056777;28;20527;-65
2021/12/04 02:25:45;;;;;;;8.33;7.43;;;3.00;99.90;;;;;;5057024;28;20764;-65
2021/12/04 02:28:13;;;;;;;8.33;7.53;;;3.10;99.90;;;;;;5056434;28;20528;-65
2021/12/04 02:30:44;;;;;;;6.93;6.30;;;3.00;99.90;;;;;;5056733;28;20495;-65
2021/12/04 02:33:12;;;;;;;7.70;6.90;;;3.00;99.90;;;;;;5057039;28;20466;-65
2021/12/04 02:35:40;;;;;;;6.90;6.20;;;3.00;99.90;;;;;;5057253;28;20469;-65
2021/12/04 02:38:09;;;;;;;7.63;6.80;;;3.10;99.90;;;;;;5056149;28;20544;-65
2021/12/04 02:40:42;;;;;;;7.43;6.70;;;3.20;99.90;;;;;;5056076;28;20514;-65
2021/12/04 02:43:12;;;;;;;7.60;6.80;;;3.10;99.90;;;;;;5056495;28;20517;-65
2021/12/04 02:45:42;;;;;;;7.80;7.00;;;3.10;99.90;;;;;;5057148;28;20496;-65
2021/12/04 02:48:09;;;;;;;6.77;6.07;;;3.20;99.90;;;;;;5062046;28;20779;-65
2021/12/04 02:50:37;;;;;;;6.83;6.23;;;3.20;99.90;;;;;;5073066;28;20494;-64
2021/12/04 02:53:04;;;;;;;8.43;6.60;;;3.20;99.90;;;;;;5057099;28;20447;-64
2021/12/04 02:55:32;;;;;;;8.00;7.20;;;3.20;99.90;;;;;;5056860;28;20494;-63
2021/12/04 02:58:03;;;;;;;8.23;6.93;;;3.10;99.90;;;;;;5055423;28;20551;-62
2021/12/04 03:00:33;;;;;;;7.77;6.10;;;3.20;99.90;;;;;;5056617;28;20486;-63
2021/12/04 03:03:02;;;;;;;9.43;7.03;;;3.20;99.90;;;;;;5056350;28;20847;-63
2021/12/04 03:05:29;;;;;;;7.27;6.53;;;3.20;99.90;;;;;;5056510;28;20490;-63
2021/12/04 03:07:58;;;;;;;7.90;7.07;;;3.20;99.90;;;;;;5056805;28;20437;-63
2021/12/04 03:10:28;;;;;;;8.00;6.87;;;3.20;99.90;;;;;;5056388;28;20539;-64
2021/12/04 03:12:56;;;;;;;7.37;6.40;;;3.20;99.90;;;;;;5056389;28;20504;-63
2021/12/04 03:15:26;;;;;;;8.27;7.00;;;3.20;99.90;;;;;;5057023;28;20881;-62
2021/12/04 03:17:54;;;;;;;7.23;6.07;;;3.20;99.90;;;;;;5056742;28;20445;-64
2021/12/04 03:20:21;;;;;;;7.67;6.80;;;3.20;99.90;;;;;;5055601;28;20476;-64
2021/12/04 03:22:49;;;;;;;8.17;6.13;;;3.10;99.90;;;;;;5056376;28;20481;-64
2021/12/04 03:25:19;;;;;;;7.30;6.60;;;3.10;99.90;;;;;;5056508;28;20511;-64
2021/12/04 03:27:48;;;;;;;8.93;7.00;;;3.20;99.90;;;;;;5060162;28;20889;-64
2021/12/04 03:30:27;;;;;;;7.20;6.30;;;3.20;99.90;;;;;;5059781;28;20444;-64
2021/12/04 03:41:10;;;;;;;11.20;6.27;;;3.20;99.90;;;;;;5060384;28;20445;-65
2021/12/04 03:43:37;;;;;;;7.03;5.97;;;3.10;99.90;;;;;;5061105;28;20455;-65
2021/12/04 03:46:07;;;;;;;7.30;6.57;;;3.10;99.90;;;;;;5061170;28;20556;-65
2021/12/04 03:48:53;;;;;;;7.27;6.57;;;3.20;99.90;;;;;;5069696;28;20916;-65
2021/12/04 03:51:22;;;;;;;7.60;6.87;;;3.10;99.90;;;;;;5068217;28;20445;-65
2021/12/04 03:53:49;;;;;;;7.97;6.80;;;3.10;99.90;;;;;;5059804;28;20523;-65
2021/12/04 03:56:22;;;;;;;6.87;6.27;;;3.10;99.90;;;;;;5059432;28;20829;-65
2021/12/04 03:58:49;;;;;;;7.70;6.93;;;3.10;99.90;;;;;;5059617;28;20465;-65
2021/12/04 04:01:20;;;;;;;7.43;6.67;;;3.10;99.90;;;;;;5059524;28;20886;-65
2021/12/04 04:03:48;;;;;;;6.90;6.20;;;3.20;99.90;;;;;;5059737;28;20465;-65
2021/12/04 04:06:15;;;;;;;8.83;7.30;;;3.20;99.90;;;;;;5059121;28;20498;-65
2021/12/04 04:08:42;;;;;;;8.33;7.07;;;3.20;99.90;;;;;;5059043;28;20436;-65
2021/12/04 04:11:09;;;;;;;7.87;7.07;;;3.20;99.90;;;;;;5059109;28;20474;-65
2021/12/04 04:13:41;;;;;;;8.87;6.67;;;3.20;99.90;;;;;;5059474;28;20531;-65
2021/12/04 04:16:10;;;;;;;7.43;6.60;;;3.20;99.90;;;;;;5059481;28;20458;-65
2021/12/04 04:18:39;;;;;;;7.43;6.73;;;3.20;99.90;;;;;;5059274;28;20466;-64
2021/12/04 04:21:09;;;;;;;8.00;7.20;;;3.20;99.90;;;;;;5059034;28;20502;-64
2021/12/04 04:23:37;;;;;;;7.40;6.57;;;3.20;99.90;;;;;;5058769;28;20493;-64
2021/12/04 04:26:04;;;;;;;8.27;7.47;;;3.20;99.90;;;;;;5058254;28;20497;-65
2021/12/04 04:28:31;;;;;;;7.97;7.17;;;3.10;99.90;;;;;;5059221;28;20470;-64
2021/12/04 04:30:58;;;;;;;7.30;6.60;;;3.10;99.90;;;;;;5058966;28;20466;-64
2021/12/04 04:33:25;;;;;;;8.60;7.63;;;3.20;99.90;;;;;;5058611;28;20540;-64
2021/12/04 04:36:06;;;;;;;8.67;7.87;;;3.20;99.90;;;;;;5058012;28;20448;-64
2021/12/04 04:38:41;;;;;;;8.07;7.27;;;3.20;99.90;;;;;;5057867;28;20470;-64
2021/12/04 05:11:59;;;;;;;9.80;6.03;;;3.20;99.90;;;;;;5069621;28;20428;-63
2021/12/04 05:14:32;;;;;;;7.50;6.80;;;3.20;99.90;;;;;;5093957;28;20479;-63
2021/12/04 05:17:05;;;;;;;8.63;6.00;;;3.20;99.90;;;;;;5094671;28;20464;-63
2021/12/04 05:19:39;;;;;;;7.83;7.07;;;3.20;99.90;;;;;;5094387;28;20499;-63
2021/12/04 05:22:08;;;;;;;8.03;6.80;;;3.30;99.90;;;;;;5094123;28;20571;-63
2021/12/04 05:24:35;;;;;;;7.07;6.47;;;3.30;99.90;;;;;;5093726;28;20491;-63
2021/12/04 05:27:02;;;;;;;7.67;7.00;;;3.30;99.90;;;;;;5094258;28;20500;-63
2021/12/04 05:29:29;;;;;;;7.77;7.07;;;3.30;99.90;;;;;;5093967;28;20784;-64
2021/12/04 05:31:56;;;;;;;7.50;6.70;;;3.30;99.90;;;;;;5093920;28;20460;-64
2021/12/04 05:34:25;;;;;;;7.40;6.53;;;3.30;99.90;;;;;;5094201;28;20460;-63
2021/12/04 05:36:53;;;;;;;6.90;6.03;;;3.30;99.90;;;;;;5093743;28;20486;-64
2021/12/04 05:39:20;;;;;;;8.07;6.77;;;3.30;99.90;;;;;;5093343;28;20484;-63
2021/12/04 05:41:47;;;;;;;7.60;6.90;;;3.30;99.90;;;;;;5093926;28;20465;-64
2021/12/04 05:44:16;;;;;;;8.33;6.83;;;3.30;99.90;;;;;;5094169;28;20503;-64
2021/12/04 05:46:45;;;;;;;7.73;6.40;;;3.30;99.90;;;;;;5092883;28;20550;-63
2021/12/04 05:49:16;;;;;;;6.87;6.17;;;3.30;99.90;;;;;;5100401;28;20456;-64
2021/12/04 05:52:02;;;;;;;8.43;7.63;;;3.30;99.90;;;;;;5093514;28;20482;-63
2021/12/04 05:54:44;;;;;;;7.60;6.40;;;3.30;99.90;;;;;;5094089;28;20741;-64
2021/12/04 05:57:12;;;;;;;7.27;6.57;;;3.30;99.90;;;;;;5093348;28;20473;-64
2021/12/04 05:59:41;;;;;;;7.70;7.00;;;3.30;99.90;;;;;;5092472;28;20489;-64
2021/12/04 06:02:08;;;;;;;7.97;7.23;;;3.30;99.90;;;;;;5093268;28;20623;-64
2021/12/04 06:04:36;;;;;;;7.53;6.77;;;3.40;99.90;;;;;;5093723;28;20461;-64
2021/12/04 06:07:05;;;;;;;7.80;5.83;;;3.30;99.90;;;;;;5092791;28;20512;-64
2021/12/04 06:09:32;;;;;;;6.70;6.10;;;3.30;99.90;;;;;;5093058;28;20952;-64
2021/12/04 06:12:04;;;;;;;7.83;7.03;;;3.30;99.90;;;;;;5079775;28;20496;-64
2021/12/04 06:14:32;;;;;;;8.17;7.20;;;3.30;99.90;;;;;;5080184;28;20472;-64
2021/12/04 06:16:59;;;;;;;7.43;6.73;;;3.40;99.90;;;;;;5079504;28;20465;-64
2021/12/04 06:24:56;;;;;;;8.13;7.33;;;3.40;99.90;;;;;;5079083;28;20436;-64
2021/12/04 06:27:23;;;;;;;7.50;6.67;;;3.40;99.90;;;;;;5079196;28;20461;-64
2021/12/04 06:29:50;;;;;;;7.30;6.50;;;3.40;99.90;;;;;;5079239;28;20468;-64
2021/12/04 06:32:19;;;;;;;8.30;6.90;;;3.30;99.90;;;;;;5079013;28;20827;-64
2021/12/04 06:34:46;;;;;;;7.50;6.80;;;3.40;99.90;;;;;;5079665;28;20458;-64
2021/12/04 06:37:16;;;;;;;9.43;8.17;;;3.40;99.90;;;;;;5078908;28;20515;-64
2021/12/04 06:39:43;;;;;;;8.53;7.73;;;3.40;99.90;;;;;;5079241;28;20499;-64
2021/12/04 06:42:09;;;;;;;8.80;8.00;;;3.40;99.90;;;;;;5078895;28;20824;-64
2021/12/04 06:44:36;;;;;;;9.00;7.13;;;3.40;99.90;;;;;;5079199;28;20519;-64
2021/12/04 06:47:04;;;;;;;8.23;7.43;;;3.40;99.90;;;;;;5078910;28;20957;-64
2021/12/04 06:49:34;;;;;;;8.47;7.57;;;3.40;99.90;;;;;;5079080;28;20871;-63
2021/12/04 06:52:04;;;;;;;8.00;7.20;;;3.40;99.90;;;;;;5078822;28;20469;-63
2021/12/04 06:54:36;;;;;;;9.33;7.97;;;3.40;99.90;;;;;;5078176;28;20472;-63
2021/12/04 06:57:08;;;;;;;8.80;7.80;;;3.40;99.90;;;;;;5078379;28;20502;-63
2021/12/04 06:59:35;;;;;;;11.30;8.23;;;3.40;99.90;;;;;;5078674;28;20588;-63
2021/12/04 07:02:05;;;;;;;9.20;8.30;;;3.40;99.90;;;;;;5078865;28;20466;-63
2021/12/04 07:04:34;;;;;;;10.47;7.80;;;3.40;99.90;;;;;;5078964;28;20897;-63
2021/12/04 07:07:02;;;;;;;14.57;11.53;;;3.40;99.90;;;;;;5079129;28;20443;-63
2021/12/04 07:09:29;;;;;;;11.20;10.00;;;3.40;99.90;;;;;;5078875;28;20507;-63
2021/12/04 07:11:57;;;;;;;10.07;9.00;;;3.40;99.90;;;;;;5078686;28;20505;-64
2021/12/04 07:14:26;;;;;;;17.33;12.40;;;3.30;99.90;;;;;;5078676;28;20515;-63
2021/12/04 07:16:54;;;;;;;36.97;20.33;;;3.40;99.90;;;;;;5078774;28;20461;-63
2021/12/04 07:19:21;;;;;;;27.77;16.17;;;3.40;99.90;;;;;;5078602;28;20931;-64
2021/12/04 07:21:50;;;;;;;26.23;16.93;;;3.40;99.90;;;;;;5077700;28;20458;-63
2021/12/04 07:24:18;;;;;;;20.53;12.87;;;3.40;99.90;;;;;;5078130;28;20826;-63
2021/12/04 07:26:45;;;;;;;20.97;13.27;;;3.40;99.90;;;;;;5078637;28;20465;-63
2021/12/04 07:29:14;;;;;;;19.97;13.90;;;3.30;99.90;;;;;;5078420;28;20457;-63
2021/12/04 07:31:41;;;;;;;12.17;10.43;;;3.30;99.90;;;;;;5078009;28;20461;-63
2021/12/04 07:34:08;;;;;;;18.23;14.07;;;3.30;99.90;;;;;;5078084;28;20475;-63
2021/12/04 07:36:38;;;;;;;17.30;13.60;;;3.30;99.90;;;;;;5078097;28;20440;-63
2021/12/04 07:39:08;;;;;;;16.60;12.67;;;3.40;99.90;;;;;;5078243;28;20752;-63
2021/12/04 07:41:38;;;;;;;13.73;10.27;;;3.40;99.90;;;;;;5077637;28;20511;-63
2021/12/04 07:44:08;;;;;;;15.67;12.10;;;3.40;99.90;;;;;;5078317;28;20466;-63
2021/12/04 07:46:36;;;;;;;20.73;14.17;;;3.40;99.90;;;;;;5078539;28;20489;-63
2021/12/04 07:49:03;;;;;;;29.00;16.10;;;3.50;99.90;;;;;;5077403;28;20465;-63
2021/12/04 07:51:30;;;;;;;33.13;19.77;;;3.40;99.90;;;;;;5077933;28;20494;-62
2021/12/04 07:53:57;;;;;;;11.70;10.47;;;3.50;99.90;;;;;;5077486;28;20461;-62
2021/12/04 07:56:27;;;;;;;35.47;22.43;;;3.50;99.90;;;;;;5077943;28;20461;-63
2021/12/04 07:58:54;;;;;;;18.27;13.00;;;3.50;99.90;;;;;;5077623;28;20489;-63
2021/12/04 08:01:22;;;;;;;35.57;23.80;;;3.50;99.90;;;;;;5077844;28;20584;-63
2021/12/04 08:03:52;;;;;;;26.67;19.37;;;3.50;99.90;;;;;;5077787;28;20461;-63
2021/12/04 08:06:21;;;;;;;12.03;10.10;;;3.50;99.90;;;;;;5077838;28;20457;-63
2021/12/04 08:08:52;;;;;;;17.50;12.37;;;3.50;99.90;;;;;;5078048;28;20465;-63
2021/12/04 08:11:19;;;;;;;21.63;12.67;;;3.50;99.90;;;;;;5078339;28;20436;-63
2021/12/04 08:13:47;;;;;;;18.30;13.57;;;3.50;99.90;;;;;;5077702;28;20489;-63
2021/12/04 08:16:15;;;;;;;10.97;9.83;;;3.60;99.90;;;;;;5078007;28;20744;-63
2021/12/04 08:18:41;;;;;;;15.73;12.43;;;3.50;99.90;;;;;;5078213;28;20773;-63
2021/12/04 08:21:12;;;;;;;15.87;12.60;;;3.60;99.90;;;;;;5077929;28;20529;-63
2021/12/04 08:23:40;;;;;;;10.10;9.00;;;3.60;99.90;;;;;;5077962;28;20469;-63
2021/12/04 08:26:07;;;;;;;12.63;11.10;;;3.60;99.90;;;;;;5077825;28;20465;-64
2021/12/04 08:28:34;;;;;;;12.53;10.93;;;3.60;99.90;;;;;;5077638;28;20470;-63
2021/12/04 08:31:01;;;;;;;13.20;9.27;;;3.60;99.90;;;;;;5077661;28;20812;-63
2021/12/04 08:33:29;;;;;;;10.13;9.10;;;3.70;99.90;;;;;;5077804;28;20461;-63
2021/12/04 08:35:57;;;;;;;12.47;10.77;;;3.70;99.90;;;;;;5077352;28;20436;-63
2021/12/04 08:38:25;;;;;;;11.27;10.17;;;3.80;99.90;;;;;;5077280;28;20483;-63
2021/12/04 08:40:52;;;;;;;10.50;9.27;;;3.80;99.90;;;;;;5077326;28;20950;-63
2021/12/04 08:43:25;;;;;;;10.60;9.50;;;3.80;99.90;;;;;;5077376;28;20508;-63
2021/12/04 08:45:53;;;;;;;10.67;9.03;;;3.90;99.90;;;;;;5077125;28;20879;-63
2021/12/04 08:48:22;;;;;;;9.93;8.93;;;3.90;99.90;;;;;;5084498;28;20461;-63
2021/12/04 08:50:49;;;;;;;10.00;9.00;;;3.90;99.90;;;;;;5097445;28;20513;-63
2021/12/04 08:53:16;;;;;;;9.77;8.73;;;4.00;99.90;;;;;;5094363;28;20461;-63
2021/12/04 08:55:50;;;;;;;9.70;8.70;;;3.90;99.90;;;;;;5076588;28;20506;-63
2021/12/04 08:58:17;;;;;;;9.00;8.10;;;3.90;99.90;;;;;;5073271;28;20861;-63
2021/12/04 09:00:49;;;;;;;9.47;8.27;;;3.90;99.90;;;;;;5076349;28;20488;-63
2021/12/04 09:03:17;;;;;;;11.00;8.77;;;4.10;99.90;;;;;;5076634;28;20493;-63
2021/12/04 09:05:50;;;;;;;8.80;7.90;;;4.10;99.90;;;;;;5073897;28;20453;-63
2021/12/04 09:08:18;;;;;;;9.13;7.80;;;4.10;99.90;;;;;;5076136;28;20462;-64
2021/12/04 09:10:49;;;;;;;8.80;8.00;;;4.10;99.90;;;;;;5076562;28;20446;-63
2021/12/04 09:13:21;;;;;;;9.43;7.97;;;4.20;99.90;;;;;;5076545;28;20449;-64
2021/12/04 09:15:50;;;;;;;11.20;8.70;;;4.10;99.90;;;;;;5074371;28;20492;-64
2021/12/04 09:18:19;;;;;;;7.50;6.80;;;4.10;99.90;;;;;;5076431;28;20919;-64
2021/12/04 09:20:47;;;;;;;7.40;6.70;;;4.00;99.90;;;;;;5076474;28;20478;-64
2021/12/04 09:23:18;;;;;;;8.53;7.67;;;4.00;99.90;;;;;;5075932;28;20460;-64
2021/12/04 09:25:48;;;;;;;7.90;7.20;;;4.00;99.90;;;;;;5074103;28;20583;-64
2021/12/04 09:28:22;;;;;;;8.03;6.77;;;3.90;99.90;;;;;;5074860;28;20477;-64
2021/12/04 09:36:32;;;;;;;7.97;6.67;;;4.00;99.90;;;;;;5075008;28;20732;-64
2021/12/04 10:01:15;;;;;;;5.83;5.23;;;4.60;99.90;;;;;;5077660;28;20511;-64
2021/12/04 10:20:48;;;;;;;5.90;5.40;;;4.90;99.90;;;;;;5044185;28;20461;-64
2021/12/04 10:34:41;;;;;;;6.07;5.57;;;4.90;99.90;;;;;;5078112;28;20424;-65
2021/12/04 10:37:13;;;;;;;6.30;5.70;;;4.90;99.90;;;;;;5078864;28;20883;-65
2021/12/04 10:39:41;;;;;;;5.37;4.87;;;4.90;99.90;;;;;;5075657;28;20432;-65
2021/12/04 10:42:13;;;;;;;6.33;5.83;;;4.90;99.90;;;;;;5078654;28;20458;-65
2021/12/04 10:44:49;;;;;;;6.27;5.67;;;4.90;99.90;;;;;;5077222;28;20439;-66
2021/12/04 10:47:22;;;;;;;6.30;5.70;;;5.00;99.90;;;;;;5077856;28;20453;-66
2021/12/04 10:50:01;;;;;;;6.63;5.97;;;5.00;99.90;;;;;;5079038;28;20453;-66
2021/12/04 10:52:46;;;;;;;7.93;7.13;;;5.00;99.90;;;;;;5073774;28;20901;-66
2021/12/04 10:55:19;;;;;;;6.03;5.53;;;5.10;99.90;;;;;;5076943;28;20439;-66
2021/12/04 11:03:31;;;;;;;7.60;6.80;;;5.10;99.90;;;;;;5066076;28;20450;-66
2021/12/04 11:25:53;;;;;;;6.47;5.53;;;4.90;99.90;;;;;;5073909;28;20491;-65
2021/12/04 11:28:31;;;;;;;5.90;5.30;;;4.90;99.90;;;;;;5077245;28;20465;-65
2021/12/04 11:36:49;;;;;;;10.83;8.80;;;4.90;99.90;;;;;;5075017;28;20432;-65
2021/12/04 11:42:19;;;;;;;5.97;5.47;;;5.00;99.90;;;;;;5069800;28;20497;-65
2021/12/04 11:44:52;;;;;;;8.13;6.57;;;4.90;99.90;;;;;;5074949;28;20467;-65
2021/12/04 11:47:20;;;;;;;28.53;17.20;;;4.80;99.90;;;;;;5077201;28;20476;-65
2021/12/04 11:49:51;;;;;;;7.47;6.10;;;4.80;99.90;;;;;;5077795;28;20487;-65
2021/12/04 11:52:24;;;;;;;5.50;5.10;;;4.80;99.90;;;;;;5076215;28;20461;-65
2021/12/04 11:54:56;;;;;;;5.93;5.20;;;4.80;99.90;;;;;;5075330;28;20464;-65
2021/12/04 11:57:31;;;;;;;8.70;7.10;;;4.80;99.90;;;;;;5076881;28;20787;-65
2021/12/04 12:00:21;;;;;;;11.20;8.90;;;4.80;99.90;;;;;;5076377;28;20517;-65
2021/12/04 12:02:51;;;;;;;15.00;9.63;;;4.90;99.90;;;;;;5077005;28;20458;-66
2021/12/04 12:05:22;;;;;;;23.20;12.90;;;5.00;99.90;;;;;;5076879;28;20806;-65
2021/12/04 12:07:54;;;;;;;9.47;7.10;;;4.90;99.90;;;;;;5073956;28;20531;-65
2021/12/04 12:10:21;;;;;;;11.00;8.47;;;5.00;99.90;;;;;;5076104;28;20745;-65
2021/12/04 12:12:54;;;;;;;13.07;9.00;;;4.90;99.90;;;;;;5076088;28;20478;-65
2021/12/04 12:15:28;;;;;;;16.17;12.37;;;4.90;99.90;;;;;;5076961;28;20453;-65
2021/12/04 12:18:01;;;;;;;6.53;5.93;;;4.90;99.90;;;;;;5076390;28;20912;-65
2021/12/04 12:20:47;;;;;;;9.43;7.63;;;5.00;99.90;;;;;;5073992;28;20507;-65
2021/12/04 12:23:21;;;;;;;6.90;6.20;;;5.00;99.90;;;;;;5074971;28;20450;-65
2021/12/04 12:37:21;;;;;;;8.30;7.50;;;4.90;99.90;;;;;;5051337;28;20724;-65
2021/12/04 12:39:57;;;;;;;7.00;6.13;;;4.90;99.90;;;;;;5073327;28;20456;-65
2021/12/04 12:42:29;;;;;;;5.70;5.20;;;5.10;99.90;;;;;;5073388;28;20809;-65
2021/12/04 12:45:15;;;;;;;5.53;4.80;;;5.10;99.90;;;;;;5076055;28;20536;-65
2021/12/04 12:47:49;;;;;;;5.97;5.30;;;5.20;99.90;;;;;;5074391;28;20977;-65
2021/12/04 12:50:29;;;;;;;7.60;6.77;;;5.30;99.90;;;;;;5074948;28;21166;-65
2021/12/04 12:53:07;;;;;;;6.43;5.20;;;5.40;99.90;;;;;;5075093;28;20917;-65
2021/12/04 12:55:35;;;;;;;4.90;4.50;;;5.40;99.90;;;;;;5073986;28;20910;-65
2021/12/04 12:58:17;;;;;;;4.00;3.60;;;5.40;99.90;;;;;;5074600;28;20488;-65
2021/12/04 13:12:04;;;;;;;3.93;3.53;;;5.20;99.90;;;;;;5075023;28;20424;-65
2021/12/04 13:14:36;;;;;;;4.80;4.40;;;5.20;99.90;;;;;;5075589;28;20481;-65
2021/12/04 13:17:08;;;;;;;4.50;4.10;;;5.20;99.90;;;;;;5073330;28;20722;-65
2021/12/04 13:19:45;;;;;;;4.97;4.53;;;5.30;99.90;;;;;;5075442;28;20463;-65
2021/12/04 13:22:17;;;;;;;4.70;4.30;;;5.40;99.90;;;;;;5077079;28;20460;-65
2021/12/04 13:24:48;;;;;;;4.77;4.37;;;5.40;99.90;;;;;;5076642;28;20449;-65
2021/12/04 13:29:48;;;;;;;4.97;4.57;;;5.40;99.90;;;;;;5077091;28;20433;-65
2021/12/04 13:32:19;;;;;;;45.07;21.30;;;5.30;99.90;;;;;;5079900;28;20457;-65
2021/12/04 13:34:46;;;;;;;19.93;11.63;;;5.30;99.90;;;;;;5080451;28;20501;-65
2021/12/04 13:37:13;;;;;;;7.30;5.00;;;5.30;99.90;;;;;;5080672;28;20759;-65
2021/12/04 13:39:43;;;;;;;24.50;15.70;;;5.20;99.90;;;;;;5079838;28;20526;-65
2021/12/04 13:42:10;;;;;;;4.43;4.03;;;5.20;99.90;;;;;;5080273;28;20493;-65
2021/12/04 13:44:39;;;;;;;25.43;14.87;;;5.10;99.90;;;;;;5080329;28;20465;-65
2021/12/04 13:47:08;;;;;;;14.37;10.07;;;5.10;99.90;;;;;;5081699;28;20515;-62
2021/12/04 13:49:47;;;;;;;16.47;9.40;;;5.10;99.90;;;;;;5088310;28;20810;-63
2021/12/04 13:52:19;;;;;;;18.07;11.43;;;5.00;99.90;;;;;;5079529;28;20432;-63
2021/12/04 13:54:49;;;;;;;17.43;11.37;;;5.00;99.90;;;;;;5080501;28;20896;-63
2021/12/04 13:57:17;;;;;;;13.47;9.90;;;5.00;99.90;;;;;;5080552;28;20581;-64
2021/12/04 13:59:47;;;;;;;20.00;13.67;;;4.90;99.90;;;;;;5079368;28;20840;-64
2021/12/04 14:02:22;;;;;;;7.50;6.50;;;4.90;99.90;;;;;;5079967;28;20488;-64
2021/12/04 14:05:00;;;;;;;12.50;9.40;;;4.80;99.90;;;;;;5079163;28;20469;-64
2021/12/04 14:07:33;;;;;;;8.47;7.43;;;4.80;99.90;;;;;;5078873;28;20461;-65
2021/12/04 14:10:14;;;;;;;9.43;8.00;;;4.90;99.90;;;;;;5079383;28;20499;-65
2021/12/04 14:12:44;;;;;;;12.90;9.50;;;5.00;99.90;;;;;;5080024;28;20508;-65
2021/12/04 14:15:15;;;;;;;7.33;6.50;;;4.90;99.90;;;;;;5079851;28;20485;-65
2021/12/04 14:17:45;;;;;;;7.93;5.80;;;4.90;99.90;;;;;;5079687;28;20789;-64
2021/12/04 14:20:20;;;;;;;8.80;6.80;;;4.80;99.90;;;;;;5079687;28;20469;-65
2021/12/04 14:22:49;;;;;;;9.97;6.43;;;4.90;99.90;;;;;;5080253;28;20499;-65
2021/12/04 14:25:19;;;;;;;13.17;7.00;;;4.90;99.90;;;;;;5079722;28;20461;-65
2021/12/04 14:27:47;;;;;;;13.73;9.57;;;4.90;99.90;;;;;;5079468;28;20461;-64
2021/12/04 14:30:16;;;;;;;9.97;7.50;;;4.90;99.90;;;;;;5079651;28;20439;-64
2021/12/04 14:32:50;;;;;;;9.33;6.93;;;4.90;99.90;;;;;;5079185;28;20481;-64
2021/12/04 14:35:19;;;;;;;6.90;6.20;;;4.80;99.90;;;;;;5079612;28;20562;-64
2021/12/04 14:37:50;;;;;;;11.07;7.93;;;4.80;99.90;;;;;;5079356;28;20892;-63
2021/12/04 14:40:25;;;;;;;7.13;5.23;;;4.80;99.90;;;;;;5078391;28;20548;-64
2021/12/04 14:42:54;;;;;;;5.73;4.93;;;4.90;99.90;;;;;;5078674;28;20492;-63
2021/12/04 14:45:25;;;;;;;7.47;6.07;;;4.80;99.90;;;;;;5078879;28;20460;-63
2021/12/04 14:47:56;;;;;;;10.23;5.40;;;4.80;99.90;;;;;;5079131;28;20936;-64
2021/12/04 14:50:26;;;;;;;6.13;5.47;;;4.80;99.90;;;;;;5074954;28;20453;-65
2021/12/04 14:52:57;;;;;;;6.20;5.70;;;4.80;99.90;;;;;;5075543;28;20460;-65
2021/12/04 14:55:29;;;;;;;6.60;5.57;;;4.90;99.90;;;;;;5078147;28;20467;-64
2021/12/04 14:57:57;;;;;;;6.23;4.90;;;4.80;99.90;;;;;;5075273;28;20460;-64
2021/12/04 15:00:33;;;;;;;7.77;6.07;;;4.90;99.90;;;;;;5077541;28;20542;-65
2021/12/04 15:03:05;;;;;;;8.57;5.80;;;4.90;99.90;;;;;;5075449;28;20509;-64
2021/12/04 15:05:45;;;;;;;6.13;5.03;;;4.80;99.90;;;;;;5077125;28;20526;-64
2021/12/04 15:08:16;;;;;;;6.17;5.63;;;4.80;99.90;;;;;;5077989;28;20469;-64
2021/12/04 15:10:47;;;;;;;6.30;5.47;;;4.70;99.90;;;;;;5077414;28;20461;-64
2021/12/04 15:13:20;;;;;;;5.60;5.10;;;4.70;99.90;;;;;;5077563;28;20452;-64
2021/12/04 15:15:48;;;;;;;6.03;5.43;;;4.70;99.90;;;;;;5077055;28;20489;-64
2021/12/04 15:18:16;;;;;;;10.33;7.90;;;4.70;99.90;;;;;;5077006;28;20465;-64
2021/12/04 15:20:57;;;;;;;14.10;10.30;;;4.70;99.90;;;;;;5077068;28;20494;-64
2021/12/04 15:23:27;;;;;;;7.50;6.03;;;4.70;99.90;;;;;;5075978;28;20462;-64
2021/12/04 15:26:00;;;;;;;7.53;6.83;;;4.70;99.90;;;;;;5077500;28;20870;-64
2021/12/04 15:28:30;;;;;;;7.27;6.57;;;4.70;99.90;;;;;;5077663;28;20454;-65
2021/12/04 15:31:01;;;;;;;6.63;6.03;;;4.60;99.90;;;;;;5077939;28;20465;-64
2021/12/04 15:33:41;;;;;;;6.67;6.07;;;4.60;99.90;;;;;;5077695;28;20461;-65
2021/12/04 15:36:22;;;;;;;7.10;6.40;;;4.60;99.90;;;;;;5076785;28;20462;-64
2021/12/04 15:38:51;;;;;;;6.00;5.40;;;4.60;99.90;;;;;;5076545;28;20809;-65
2021/12/04 15:41:35;;;;;;;5.70;5.20;;;4.50;99.90;;;;;;5075482;28;20460;-64
2021/12/04 15:44:19;;;;;;;7.13;6.43;;;4.50;99.90;;;;;;5076715;28;20468;-64
2021/12/04 15:46:56;;;;;;;9.33;8.30;;;4.40;99.90;;;;;;5077357;28;20757;-64
2021/12/04 15:49:48;;;;;;;5.57;5.07;;;4.50;99.90;;;;;;5076665;28;20501;-64
2021/12/04 15:55:18;;;;;;;6.10;5.30;;;4.40;99.90;;;;;;5076783;28;20428;-64
2021/12/04 15:57:53;;;;;;;5.67;4.97;;;4.30;99.90;;;;;;5075700;28;20843;-64
2021/12/04 16:00:21;;;;;;;4.30;3.90;;;4.30;99.90;;;;;;5074959;28;20536;-64
2021/12/04 16:02:51;;;;;;;5.97;5.47;;;4.30;99.90;;;;;;5074234;28;20485;-65